Chicota, Texas
Current Conditions -  °F | °C
As of 5:55 PM on Thursday 27 Nov 2014 (Local Time) from KHHW Reporting Station
Clear Clear  
Wind Chill: 50°   Ceiling: Unl
Heat Index: 50°   Visibility: 10mi
Dew Point: 20°   Wind: 5mph
Humidity: 30%   Direction: 140°SE
Pressure: 30.41"   Gusts: NA
Location:  33.87°N, 95.57°W
Report Text: KHHW 272355Z AUTO 14004KT 10SM CLR 10/M07 A3041 RMK AO2 T01001069 10139 20095
Loading
Personal Weather Stations






























Interactive Weather Map New forecast layout! Learn more

10-Day Weather Forecast

Advertisements
Track Severe Weather on mobile